Time,TemperatureF,DewpointF,PressureIn,WindDirection,WindDirectionDegrees,WindSpeedMPH,WindSpeedGustMPH,Humidity,HourlyPrecipIn,Conditions,Clouds,dailyrainin,SoftwareType,DateUTC
2013-02-12 00:01:00,30.0,25.0,29.87,West,273,3.0,14.0,80,0.00,,,0.04,,2013-02-12 05:01:00,
2013-02-12 00:11:00,30.0,25.0,29.87,West,273,3.0,14.0,80,0.00,,,0.04,,2013-02-12 05:11:00,
2013-02-12 00:21:00,30.0,25.0,29.87,West,273,3.0,14.0,80,0.00,,,0.04,,2013-02-12 05:21:00,
2013-02-12 00:32:00,29.0,24.0,29.88,NNW,340,5.0,13.0,80,0.00,,,0.04,,2013-02-12 05:32:00,
2013-02-12 00:42:00,29.0,24.0,29.88,NNW,340,5.0,13.0,80,0.00,,,0.04,,2013-02-12 05:42:00,
2013-02-12 00:52:00,29.0,24.0,29.88,NNW,340,5.0,13.0,80,0.00,,,0.04,,2013-02-12 05:52:00,
2013-02-12 01:02:00,29.0,23.0,29.90,NW,326,3.0,12.0,79,0.00,,,0.04,,2013-02-12 06:02:00,
2013-02-12 01:12:00,29.0,23.0,29.90,NW,326,3.0,12.0,79,0.00,,,0.04,,2013-02-12 06:12:00,
2013-02-12 01:22:00,29.0,23.0,29.90,NW,326,3.0,12.0,79,0.00,,,0.04,,2013-02-12 06:22:00,
2013-02-12 01:32:00,29.0,24.0,29.91,NW,325,6.0,14.0,80,0.00,,,0.04,,2013-02-12 06:32:00,
2013-02-12 01:42:00,29.0,24.0,29.91,NW,325,6.0,14.0,80,0.00,,,0.04,,2013-02-12 06:42:00,
2013-02-12 01:52:00,29.0,24.0,29.91,NW,325,6.0,14.0,80,0.00,,,0.04,,2013-02-12 06:52:00,
2013-02-12 02:02:00,29.0,24.0,29.91,WNW,284,3.0,9.0,80,0.00,,,0.04,,2013-02-12 07:02:00,
2013-02-12 02:12:00,29.0,24.0,29.91,WNW,284,3.0,9.0,80,0.00,,,0.04,,2013-02-12 07:12:00,
2013-02-12 02:21:00,29.0,24.0,29.91,WNW,284,3.0,9.0,80,0.00,,,0.04,,2013-02-12 07:21:00,
2013-02-12 02:32:00,29.0,24.0,29.92,NW,325,6.0,12.0,80,0.00,,,0.04,,2013-02-12 07:32:00,
2013-02-12 02:42:00,29.0,24.0,29.92,NW,325,6.0,12.0,80,0.00,,,0.04,,2013-02-12 07:42:00,
2013-02-12 02:52:00,29.0,24.0,29.92,NW,325,6.0,12.0,80,0.00,,,0.04,,2013-02-12 07:52:00,
2013-02-12 03:01:00,29.0,24.0,29.93,West,276,4.0,12.0,80,0.00,,,0.04,,2013-02-12 08:01:00,
2013-02-12 03:11:00,29.0,24.0,29.93,West,276,4.0,12.0,80,0.00,,,0.04,,2013-02-12 08:11:00,
2013-02-12 03:22:00,29.0,24.0,29.93,West,276,4.0,12.0,80,0.00,,,0.04,,2013-02-12 08:22:00,
2013-02-12 03:32:00,29.0,24.0,29.93,West,276,4.0,12.0,80,0.00,,,0.04,,2013-02-12 08:32:00,
2013-02-12 03:42:00,29.0,24.0,29.93,West,276,4.0,12.0,80,0.00,,,0.04,,2013-02-12 08:42:00,
2013-02-12 04:02:00,29.0,24.0,29.95,West,267,5.0,14.0,80,0.00,,,0.04,,2013-02-12 09:02:00,
2013-02-12 04:11:00,29.0,24.0,29.95,West,267,5.0,14.0,80,0.00,,,0.04,,2013-02-12 09:11:00,
2013-02-12 04:22:00,29.0,24.0,29.95,West,267,5.0,14.0,80,0.00,,,0.04,,2013-02-12 09:22:00,
2013-02-12 04:32:00,29.0,24.0,29.96,West,264,4.0,14.0,80,0.00,,,0.04,,2013-02-12 09:32:00,
2013-02-12 04:42:00,29.0,24.0,29.96,West,264,4.0,14.0,80,0.00,,,0.04,,2013-02-12 09:42:00,
2013-02-12 04:52:00,29.0,24.0,29.96,West,264,4.0,14.0,80,0.00,,,0.04,,2013-02-12 09:52:00,
2013-02-12 05:01:00,29.0,24.0,29.97,West,281,4.0,9.0,80,0.00,,,0.04,,2013-02-12 10:01:00,
2013-02-12 05:11:00,29.0,24.0,29.97,West,281,4.0,9.0,80,0.00,,,0.04,,2013-02-12 10:11:00,
2013-02-12 05:22:00,29.0,24.0,29.97,West,281,4.0,9.0,80,0.00,,,0.04,,2013-02-12 10:22:00,
2013-02-12 05:32:00,29.0,24.0,29.97,West,263,7.0,12.0,80,0.00,,,0.04,,2013-02-12 10:32:00,
2013-02-12 05:43:00,29.0,24.0,29.97,West,263,7.0,12.0,80,0.00,,,0.04,,2013-02-12 10:43:00,
2013-02-12 05:52:00,29.0,24.0,29.97,West,263,7.0,12.0,80,0.00,,,0.04,,2013-02-12 10:52:00,
2013-02-12 06:01:00,29.0,24.0,29.98,WNW,295,3.0,10.0,80,0.00,,,0.04,,2013-02-12 11:01:00,
2013-02-12 06:11:00,29.0,24.0,29.98,WNW,295,3.0,10.0,80,0.00,,,0.04,,2013-02-12 11:11:00,
2013-02-12 06:22:00,29.0,24.0,29.98,WNW,295,3.0,10.0,80,0.00,,,0.04,,2013-02-12 11:22:00,
2013-02-12 06:32:00,29.0,23.0,29.99,NW,325,4.0,17.0,79,0.00,,,0.03,,2013-02-12 11:32:00,
2013-02-12 06:42:00,29.0,23.0,29.99,NW,325,4.0,17.0,79,0.00,,,0.03,,2013-02-12 11:42:00,
2013-02-12 06:53:00,29.0,23.0,29.99,NW,325,4.0,17.0,79,0.00,,,0.03,,2013-02-12 11:53:00,
2013-02-12 07:02:00,29.0,24.0,29.99,WSW,253,4.0,15.0,81,0.00,,,0.03,,2013-02-12 12:02:00,
2013-02-12 07:11:00,29.0,24.0,29.99,WSW,253,4.0,15.0,81,0.00,,,0.03,,2013-02-12 12:11:00,
2013-02-12 07:22:00,29.0,24.0,29.99,WSW,253,4.0,15.0,81,0.00,,,0.03,,2013-02-12 12:22:00,
2013-02-12 07:32:00,29.0,24.0,30.00,WSW,252,7.0,15.0,81,0.00,,,0.03,,2013-02-12 12:32:00,
2013-02-12 07:42:00,29.0,24.0,30.00,WSW,252,7.0,15.0,81,0.00,,,0.03,,2013-02-12 12:42:00,
2013-02-12 07:53:00,29.0,24.0,30.00,WSW,252,7.0,15.0,81,0.00,,,0.03,,2013-02-12 12:53:00,
2013-02-12 08:02:00,28.0,23.0,30.00,West,276,3.0,8.0,81,0.00,,,0.03,,2013-02-12 13:02:00,
2013-02-12 08:11:00,28.0,23.0,30.00,West,276,3.0,8.0,81,0.00,,,0.03,,2013-02-12 13:11:00,
2013-02-12 08:22:00,28.0,23.0,30.00,West,276,3.0,8.0,81,0.00,,,0.03,,2013-02-12 13:22:00,
2013-02-12 08:32:00,28.0,23.0,30.01,West,280,5.0,9.0,81,0.00,,,0.03,,2013-02-12 13:32:00,
2013-02-12 08:42:00,28.0,23.0,30.01,West,280,5.0,9.0,81,0.00,,,0.03,,2013-02-12 13:42:00,
2013-02-12 08:52:00,28.0,23.0,30.01,West,280,5.0,9.0,81,0.00,,,0.03,,2013-02-12 13:52:00,
2013-02-12 09:01:00,28.0,23.0,30.01,West,269,2.0,7.0,81,0.00,,,0.03,,2013-02-12 14:01:00,
2013-02-12 09:12:00,28.0,23.0,30.01,West,269,2.0,7.0,81,0.00,,,0.03,,2013-02-12 14:12:00,
2013-02-12 09:22:00,28.0,23.0,30.01,West,269,2.0,7.0,81,0.00,,,0.03,,2013-02-12 14:22:00,
2013-02-12 09:32:00,28.0,23.0,30.01,WSW,257,4.0,10.0,81,0.00,,,0.03,,2013-02-12 14:32:00,
2013-02-12 09:42:00,28.0,23.0,30.01,WSW,257,4.0,10.0,81,0.00,,,0.03,,2013-02-12 14:42:00,
2013-02-12 09:52:00,28.0,23.0,30.01,WSW,257,4.0,10.0,81,0.00,,,0.03,,2013-02-12 14:52:00,
2013-02-12 10:02:00,28.0,23.0,30.01,West,274,2.0,10.0,81,0.00,,,0.03,,2013-02-12 15:02:00,
2013-02-12 10:11:00,28.0,23.0,30.01,West,274,2.0,10.0,81,0.00,,,0.03,,2013-02-12 15:11:00,
2013-02-12 10:21:00,28.0,23.0,30.01,West,274,2.0,10.0,81,0.00,,,0.03,,2013-02-12 15:21:00,
2013-02-12 10:32:00,28.0,23.0,30.03,WSW,257,6.0,12.0,81,0.00,,,0.03,,2013-02-12 15:32:00,
2013-02-12 10:42:00,28.0,23.0,30.03,WSW,257,6.0,12.0,81,0.00,,,0.03,,2013-02-12 15:42:00,
2013-02-12 10:52:00,28.0,23.0,30.03,WSW,257,6.0,12.0,81,0.00,,,0.03,,2013-02-12 15:52:00,
2013-02-12 11:01:00,28.0,23.0,30.03,WSW,257,6.0,12.0,81,0.00,,,0.03,,2013-02-12 16:01:00,
2013-02-12 11:11:00,28.0,23.0,30.03,WSW,257,6.0,12.0,81,0.00,,,0.03,,2013-02-12 16:11:00,
2013-02-12 11:32:00,29.0,24.0,30.01,West,266,3.0,8.0,80,0.00,,,0.03,,2013-02-12 16:32:00,
2013-02-12 11:42:00,29.0,24.0,30.01,West,266,3.0,8.0,80,0.00,,,0.03,,2013-02-12 16:42:00,
2013-02-12 11:52:00,29.0,24.0,30.01,West,266,3.0,8.0,80,0.00,,,0.03,,2013-02-12 16:52:00,
2013-02-12 12:01:00,28.0,23.0,30.02,West,260,5.0,14.0,81,0.00,,,0.03,,2013-02-12 17:01:00,
2013-02-12 12:12:00,28.0,23.0,30.02,West,260,5.0,14.0,81,0.00,,,0.03,,2013-02-12 17:12:00,
2013-02-12 12:21:00,28.0,23.0,30.02,West,260,5.0,14.0,81,0.00,,,0.03,,2013-02-12 17:21:00,
2013-02-12 12:32:00,28.0,23.0,30.01,WSW,241,4.0,14.0,81,0.00,,,0.03,,2013-02-12 17:32:00,
2013-02-12 12:42:00,28.0,23.0,30.01,WSW,241,4.0,14.0,81,0.00,,,0.03,,2013-02-12 17:42:00,
2013-02-12 12:52:00,28.0,23.0,30.01,WSW,241,4.0,14.0,81,0.00,,,0.03,,2013-02-12 17:52:00,
2013-02-12 13:02:00,28.0,23.0,30.02,West,263,6.0,14.0,81,0.00,,,0.02,,2013-02-12 18:02:00,
2013-02-12 13:11:00,28.0,23.0,30.02,West,263,6.0,14.0,81,0.00,,,0.02,,2013-02-12 18:11:00,
2013-02-12 13:23:00,28.0,23.0,30.02,West,263,6.0,14.0,81,0.00,,,0.02,,2013-02-12 18:23:00,
2013-02-12 13:32:00,27.0,22.0,30.00,WNW,288,6.0,13.0,81,0.00,,,0.01,,2013-02-12 18:32:00,
2013-02-12 13:41:00,27.0,22.0,30.00,WNW,288,6.0,13.0,81,0.00,,,0.01,,2013-02-12 18:41:00,
2013-02-12 13:52:00,27.0,22.0,30.00,WNW,288,6.0,13.0,81,0.00,,,0.01,,2013-02-12 18:52:00,
2013-02-12 14:02:00,27.0,22.0,29.98,WSW,256,7.0,14.0,81,0.00,,,0.01,,2013-02-12 19:02:00,
2013-02-12 14:11:00,27.0,22.0,29.98,WSW,256,7.0,14.0,81,0.00,,,0.01,,2013-02-12 19:11:00,
2013-02-12 14:21:00,27.0,22.0,29.98,WSW,256,7.0,14.0,81,0.00,,,0.01,,2013-02-12 19:21:00,
2013-02-12 14:32:00,27.0,22.0,29.96,West,275,3.0,12.0,81,0.00,,,0.01,,2013-02-12 19:32:00,
2013-02-12 14:42:00,27.0,22.0,29.96,West,275,3.0,12.0,81,0.00,,,0.01,,2013-02-12 19:42:00,
2013-02-12 14:52:00,27.0,22.0,29.96,West,275,3.0,12.0,81,0.00,,,0.01,,2013-02-12 19:52:00,
2013-02-12 15:01:00,27.0,22.0,29.96,West,262,3.0,9.0,81,0.00,,,0.01,,2013-02-12 20:01:00,
2013-02-12 15:11:00,27.0,22.0,29.96,West,262,3.0,9.0,81,0.00,,,0.01,,2013-02-12 20:11:00,
2013-02-12 15:22:00,27.0,22.0,29.96,West,262,3.0,9.0,81,0.00,,,0.01,,2013-02-12 20:22:00,
2013-02-12 15:32:00,27.0,22.0,29.96,West,269,3.0,6.0,81,0.00,,,0.00,,2013-02-12 20:32:00,
2013-02-12 15:41:00,27.0,22.0,29.96,West,269,3.0,6.0,81,0.00,,,0.00,,2013-02-12 20:41:00,
2013-02-12 15:52:00,27.0,22.0,29.96,West,269,3.0,6.0,81,0.00,,,0.00,,2013-02-12 20:52:00,
2013-02-12 16:02:00,27.0,22.0,29.96,WSW,249,6.0,16.0,81,0.00,,,0.00,,2013-02-12 21:02:00,
2013-02-12 16:11:00,27.0,22.0,29.96,WSW,249,6.0,16.0,81,0.00,,,0.00,,2013-02-12 21:11:00,
2013-02-12 16:21:00,27.0,22.0,29.96,WSW,249,6.0,16.0,81,0.00,,,0.00,,2013-02-12 21:21:00,
2013-02-12 16:32:00,26.0,21.0,29.96,SW,217,5.0,13.0,81,0.00,,,0.00,,2013-02-12 21:32:00,
2013-02-12 16:42:00,26.0,21.0,29.96,SW,217,5.0,13.0,81,0.00,,,0.00,,2013-02-12 21:42:00,
2013-02-12 16:52:00,26.0,21.0,29.96,SW,217,5.0,13.0,81,0.00,,,0.00,,2013-02-12 21:52:00,
2013-02-12 17:01:00,26.0,21.0,29.98,West,262,5.0,15.0,81,0.00,,,0.00,,2013-02-12 22:01:00,
2013-02-12 17:12:00,26.0,21.0,29.98,West,262,5.0,15.0,81,0.00,,,0.00,,2013-02-12 22:12:00,
2013-02-12 17:22:00,26.0,21.0,29.98,West,262,5.0,15.0,81,0.00,,,0.00,,2013-02-12 22:22:00,
2013-02-12 17:32:00,26.0,21.0,29.97,West,263,5.0,9.0,81,0.00,,,0.00,,2013-02-12 22:32:00,
2013-02-12 17:42:00,26.0,21.0,29.97,West,263,5.0,9.0,81,0.00,,,0.00,,2013-02-12 22:42:00,
2013-02-12 17:52:00,26.0,21.0,29.97,West,263,5.0,9.0,81,0.00,,,0.00,,2013-02-12 22:52:00,
2013-02-12 18:01:00,26.0,21.0,29.96,West,269,3.0,9.0,81,0.00,,,0.00,,2013-02-12 23:01:00,
2013-02-12 18:11:00,26.0,21.0,29.96,West,269,3.0,9.0,81,0.00,,,0.00,,2013-02-12 23:11:00,
2013-02-12 18:22:00,26.0,21.0,29.96,West,269,3.0,9.0,81,0.00,,,0.00,,2013-02-12 23:22:00,
2013-02-12 18:32:00,26.0,21.0,29.97,West,273,4.0,12.0,81,0.00,,,0.00,,2013-02-12 23:32:00,
2013-02-12 18:42:00,26.0,21.0,29.97,West,273,4.0,12.0,81,0.00,,,0.00,,2013-02-12 23:42:00,
2013-02-12 18:52:00,26.0,21.0,29.97,West,273,4.0,12.0,81,0.00,,,0.00,,2013-02-12 23:52:00,
2013-02-12 19:02:00,26.0,21.0,29.96,WSW,249,3.0,8.0,81,0.00,,,0.00,,2013-02-13 00:02:00,
2013-02-12 19:11:00,26.0,21.0,29.96,WSW,249,3.0,8.0,81,0.00,,,0.00,,2013-02-13 00:11:00,
2013-02-12 19:22:00,26.0,21.0,29.96,WSW,249,3.0,8.0,81,0.00,,,0.00,,2013-02-13 00:22:00,
2013-02-12 19:32:00,27.0,22.0,29.96,West,273,2.0,7.0,81,0.00,,,0.00,,2013-02-13 00:32:00,
2013-02-12 19:42:00,27.0,22.0,29.96,West,273,2.0,7.0,81,0.00,,,0.00,,2013-02-13 00:42:00,
2013-02-12 19:52:00,27.0,22.0,29.96,West,273,2.0,7.0,81,0.00,,,0.00,,2013-02-13 00:52:00,
2013-02-12 20:01:00,27.0,22.0,29.96,West,274,2.0,6.0,81,0.00,,,0.00,,2013-02-13 01:01:00,
2013-02-12 20:11:00,27.0,22.0,29.96,West,274,2.0,6.0,81,0.00,,,0.00,,2013-02-13 01:11:00,
2013-02-12 20:21:00,27.0,22.0,29.96,West,274,2.0,6.0,81,0.00,,,0.00,,2013-02-13 01:21:00,
2013-02-12 20:32:00,27.0,22.0,29.95,WSW,252,1.0,3.0,81,0.00,,,0.00,,2013-02-13 01:32:00,
2013-02-12 20:42:00,27.0,22.0,29.95,WSW,252,1.0,3.0,81,0.00,,,0.00,,2013-02-13 01:42:00,
2013-02-12 20:52:00,27.0,22.0,29.95,WSW,252,1.0,3.0,81,0.00,,,0.00,,2013-02-13 01:52:00,
2013-02-12 21:01:00,27.0,22.0,29.94,WSW,252,0.0,3.0,82,0.00,,,0.00,,2013-02-13 02:01:00,
2013-02-12 21:11:00,27.0,22.0,29.94,WSW,252,0.0,3.0,82,0.00,,,0.00,,2013-02-13 02:11:00,
2013-02-12 21:22:00,27.0,22.0,29.94,WSW,252,0.0,3.0,82,0.00,,,0.00,,2013-02-13 02:22:00,
2013-02-12 21:32:00,27.0,22.0,29.93,WSW,252,2.0,5.0,81,0.00,,,0.00,,2013-02-13 02:32:00,
2013-02-12 21:42:00,27.0,22.0,29.93,WSW,252,2.0,5.0,81,0.00,,,0.00,,2013-02-13 02:42:00,
2013-02-12 21:52:00,27.0,22.0,29.93,WSW,252,2.0,5.0,81,0.00,,,0.00,,2013-02-13 02:52:00,
2013-02-12 22:01:00,27.0,22.0,29.93,WSW,252,2.0,3.0,81,0.00,,,0.00,,2013-02-13 03:01:00,
2013-02-12 22:11:00,27.0,22.0,29.93,WSW,252,2.0,3.0,81,0.00,,,0.00,,2013-02-13 03:11:00,
2013-02-12 22:21:00,27.0,22.0,29.93,WSW,252,2.0,3.0,81,0.00,,,0.00,,2013-02-13 03:21:00,
2013-02-12 22:32:00,27.0,22.0,29.92,WSW,251,2.0,5.0,81,0.00,,,0.00,,2013-02-13 03:32:00,
2013-02-12 22:42:00,27.0,22.0,29.92,WSW,251,2.0,5.0,81,0.00,,,0.00,,2013-02-13 03:42:00,
2013-02-12 22:52:00,27.0,22.0,29.92,WSW,251,2.0,5.0,81,0.00,,,0.00,,2013-02-13 03:52:00,
2013-02-12 23:01:00,27.0,22.0,29.91,SSW,209,2.0,3.0,81,0.00,,,0.00,,2013-02-13 04:01:00,
2013-02-12 23:11:00,27.0,22.0,29.91,SSW,209,2.0,3.0,81,0.00,,,0.00,,2013-02-13 04:11:00,
2013-02-12 23:21:00,27.0,22.0,29.91,SSW,209,2.0,3.0,81,0.00,,,0.00,,2013-02-13 04:21:00,
2013-02-12 23:32:00,27.0,22.0,29.91,SSW,209,2.0,3.0,81,0.00,,,0.00,,2013-02-13 04:32:00,
2013-02-12 23:42:00,27.0,22.0,29.91,SSW,209,2.0,3.0,81,0.00,,,0.00,,2013-02-13 04:42:00,